Wetterdaten: Woche 15.11.04 - 21.11.04 (KW47)
Datum Zeit Temperatur Luftfeuchte Luftdruck Regenmenge Wind Richtung Taupunkt Windchill
15.11.2004 00:00 -1.7 C 70 % 1029.8 hPa 0.0 l/m 0.0 km/h (0 Bft) N -6.5 C -1.7 C
15.11.2004 01:00 -3.2 C 77 % 1030.0 hPa 0.0 l/m 0.5 km/h (0 Bft) O -6.7 C -3.2 C
15.11.2004 02:00 -3.1 C 80 % 1030.0 hPa 0.0 l/m 0.0 km/h (0 Bft) N -6.1 C -3.1 C
15.11.2004 03:00 -3.1 C 78 % 1030.0 hPa 0.0 l/m 0.1 km/h (0 Bft) N -6.4 C -3.1 C
15.11.2004 04:00 -3.2 C 81 % 1028.9 hPa 0.0 l/m 0.0 km/h (0 Bft) N -6.0 C -3.2 C
15.11.2004 05:00 -3.0 C 78 % 1028.9 hPa 0.0 l/m 0.1 km/h (0 Bft) N -6.3 C -3.0 C
15.11.2004 06:00 -3.8 C 80 % 1029.0 hPa 0.0 l/m 0.1 km/h (0 Bft) N -6.7 C -3.8 C
15.11.2004 07:00 -3.9 C 84 % 1029.1 hPa 0.0 l/m 0.3 km/h (0 Bft) O-NO -6.3 C -3.9 C
15.11.2004 08:00 -2.9 C 81 % 1029.8 hPa 0.0 l/m 0.7 km/h (0 Bft) O -5.7 C -3.1 C
15.11.2004 09:00 -1.0 C 73 % 1029.7 hPa 0.0 l/m 2.5 km/h (1 Bft) NO -5.3 C -1.6 C
15.11.2004 10:00 0.4 C 68 % 1029.2 hPa 0.0 l/m 5.0 km/h (1 Bft) NO -4.7 C -0.9 C
15.11.2004 11:00 2.1 C 62 % 1028.7 hPa 0.0 l/m 6.5 km/h (2 Bft) O -4.4 C 0.6 C
15.11.2004 12:00 3.0 C 58 % 1028.0 hPa 0.0 l/m 4.4 km/h (1 Bft) O-NO -4.5 C 2.1 C
15.11.2004 13:00 3.9 C 54 % 1027.1 hPa 0.0 l/m 8.6 km/h (2 Bft) O-SO -4.5 C 1.9 C
15.11.2004 14:00 3.8 C 56 % 1026.9 hPa 0.0 l/m 18.0 km/h (3 Bft) O-SO -4.2 C -0.1 C
15.11.2004 15:00 3.0 C 59 % 1027.0 hPa 0.0 l/m 14.7 km/h (3 Bft) O-SO -4.2 C -0.5 C
15.11.2004 16:00 1.3 C 67 % 1027.2 hPa 0.0 l/m 4.7 km/h (1 Bft) SO -4.1 C 0.1 C
15.11.2004 17:00 -1.1 C 77 % 1027.6 hPa 0.0 l/m 4.6 km/h (1 Bft) O-SO -4.5 C -2.5 C
15.11.2004 18:00 -2.3 C 83 % 1027.8 hPa 0.0 l/m 4.1 km/h (1 Bft) O -4.7 C -3.6 C
15.11.2004 19:00 -2.9 C 86 % 1028.6 hPa 0.0 l/m 1.2 km/h (1 Bft) O-SO -4.9 C -3.2 C
15.11.2004 20:00 -3.4 C 88 % 1029.0 hPa 0.0 l/m 0.0 km/h (0 Bft) N -5.0 C -3.4 C
15.11.2004 21:00 -4.0 C 89 % 1029.1 hPa 0.0 l/m 0.0 km/h (0 Bft) N -5.5 C -4.0 C
15.11.2004 22:00 -4.3 C 91 % 1029.1 hPa 0.0 l/m 1.6 km/h (1 Bft) O-SO -5.6 C -4.4 C
15.11.2004 23:00 -4.6 C 92 % 1029.6 hPa 0.0 l/m 1.2 km/h (1 Bft) O-SO -5.8 C -4.8 C
16.11.2004 00:00 -4.9 C 92 % 1030.3 hPa 0.0 l/m 2.1 km/h (1 Bft) O-SO -6.0 C -5.6 C
16.11.2004 01:00 -5.1 C 93 % 1030.3 hPa 0.0 l/m 1.3 km/h (1 Bft) O-SO -6.0 C -5.5 C
16.11.2004 02:00 -5.3 C 91 % 1030.3 hPa 0.0 l/m 0.2 km/h (0 Bft) O -6.4 C -5.3 C
16.11.2004 03:00 -5.7 C 89 % 1030.4 hPa 0.0 l/m 1.0 km/h (0 Bft) O -7.1 C -5.8 C
16.11.2004 04:00 -5.6 C 89 % 1030.4 hPa 0.0 l/m 0.6 km/h (0 Bft) O -7.2 C -5.6 C
16.11.2004 05:00 -5.7 C 89 % 1030.7 hPa 0.0 l/m 0.0 km/h (0 Bft) N -7.2 C -5.7 C
16.11.2004 06:00 -4.8 C 91 % 1031.3 hPa 0.0 l/m 0.2 km/h (0 Bft) SO -6.0 C -4.8 C
16.11.2004 07:00 -4.2 C 93 % 1031.5 hPa 0.0 l/m 3.8 km/h (1 Bft) O-SO -5.2 C -5.3 C
16.11.2004 08:00 -3.7 C 92 % 1032.1 hPa 0.0 l/m 0.7 km/h (0 Bft) O-SO -4.8 C -3.7 C
16.11.2004 09:00 -2.8 C 89 % 1032.5 hPa 0.0 l/m 0.2 km/h (0 Bft) O-SO -4.3 C -2.8 C
16.11.2004 10:00 -1.6 C 85 % 1032.9 hPa 0.0 l/m 0.3 km/h (0 Bft) O-SO -3.8 C -1.7 C
16.11.2004 11:00 -0.2 C 84 % 1032.6 hPa 0.0 l/m 1.5 km/h (1 Bft) O-SO -2.5 C -0.5 C
16.11.2004 12:00 1.7 C 80 % 1031.3 hPa 0.0 l/m 1.8 km/h (1 Bft) SO -1.3 C 1.5 C
16.11.2004 13:00 3.7 C 69 % 1031.0 hPa 0.0 l/m 1.6 km/h (1 Bft) SO -1.5 C 3.5 C
16.11.2004 14:00 4.9 C 62 % 1030.9 hPa 0.0 l/m 0.8 km/h (0 Bft) SO -1.7 C 4.9 C
16.11.2004 15:00 4.8 C 64 % 1030.9 hPa 0.0 l/m 0.0 km/h (0 Bft) N -1.5 C 4.8 C
16.11.2004 16:00 4.2 C 64 % 1031.0 hPa 0.0 l/m 2.8 km/h (1 Bft) W-NW -1.9 C 3.6 C
16.11.2004 17:00 3.7 C 68 % 1031.0 hPa 0.0 l/m 0.3 km/h (0 Bft) S -1.6 C 3.7 C
16.11.2004 18:00 3.4 C 70 % 1031.7 hPa 0.0 l/m 0.1 km/h (0 Bft) N -1.6 C 3.4 C
16.11.2004 19:00 3.1 C 73 % 1032.2 hPa 0.0 l/m 0.0 km/h (0 Bft) N -1.3 C 3.1 C
16.11.2004 20:00 2.6 C 75 % 1032.2 hPa 0.0 l/m 0.0 km/h (0 Bft) N -1.3 C 2.6 C
16.11.2004 21:00 0.9 C 81 % 1032.5 hPa 0.0 l/m 1.2 km/h (1 Bft) SO -1.9 C 0.6 C
16.11.2004 22:00 0.4 C 86 % 1032.6 hPa 0.0 l/m 5.2 km/h (1 Bft) SO -1.6 C -1.1 C
16.11.2004 23:00 -0.7 C 90 % 1032.7 hPa 0.0 l/m 3.3 km/h (1 Bft) O-SO -2.2 C -1.4 C
17.11.2004 00:00 -1.0 C 92 % 1032.8 hPa 0.0 l/m 3.3 km/h (1 Bft) O-SO -2.1 C -1.9 C
17.11.2004 01:00 -2.0 C 92 % 1032.9 hPa 0.0 l/m 0.2 km/h (0 Bft) O-SO -3.0 C -2.0 C
17.11.2004 02:00 -1.1 C 95 % 1032.8 hPa 0.0 l/m 5.2 km/h (1 Bft) O-SO -1.8 C -2.7 C
17.11.2004 03:00 -1.1 C 95 % 1032.8 hPa 0.0 l/m 7.2 km/h (2 Bft) O-SO -1.8 C -3.6 C
17.11.2004 04:00 -0.6 C 94 % 1032.7 hPa 0.0 l/m 5.2 km/h (1 Bft) O-SO -1.4 C -2.1 C
17.11.2004 05:00 -0.1 C 90 % 1032.6 hPa 0.0 l/m 0.9 km/h (0 Bft) O-SO -1.5 C -0.3 C
17.11.2004 06:00 0.2 C 86 % 1032.1 hPa 0.0 l/m 3.1 km/h (1 Bft) SO -1.8 C -0.6 C
17.11.2004 07:00 0.7 C 82 % 1031.8 hPa 0.0 l/m 1.3 km/h (1 Bft) O-NO -2.0 C 0.4 C
17.11.2004 08:00 1.4 C 78 % 1032.4 hPa 0.0 l/m 3.7 km/h (1 Bft) SO -2.0 C 0.7 C
17.11.2004 09:00 2.4 C 75 % 1032.3 hPa 0.0 l/m 4.8 km/h (1 Bft) O-SO -1.7 C 1.3 C
17.11.2004 10:00 3.2 C 71 % 1032.2 hPa 0.0 l/m 2.6 km/h (1 Bft) O -1.5 C 2.8 C
17.11.2004 11:00 4.1 C 69 % 1032.0 hPa 0.0 l/m 2.8 km/h (1 Bft) S-SO -1.0 C 3.6 C
17.11.2004 12:00 5.2 C 66 % 1030.8 hPa 0.0 l/m 3.9 km/h (1 Bft) W -0.7 C 4.4 C
17.11.2004 13:00 5.0 C 68 % 1030.3 hPa 0.0 l/m 1.0 km/h (0 Bft) W -0.3 C 4.9 C
17.11.2004 14:00 5.7 C 67 % 1029.7 hPa 0.0 l/m 1.4 km/h (1 Bft) SW 0.2 C 5.5 C
17.11.2004 15:00 6.3 C 64 % 1029.5 hPa 0.0 l/m 4.1 km/h (1 Bft) NO 0.1 C 5.7 C
17.11.2004 16:00 6.1 C 67 % 1028.8 hPa 0.0 l/m 3.3 km/h (1 Bft) O-SO 0.4 C 5.5 C
17.11.2004 17:00 5.7 C 69 % 1028.9 hPa 0.0 l/m 3.4 km/h (1 Bft) SO 0.5 C 5.2 C
17.11.2004 18:00 5.6 C 70 % 1029.4 hPa 0.0 l/m 1.6 km/h (1 Bft) N-NO 0.5 C 5.4 C
17.11.2004 19:00 5.5 C 72 % 1029.2 hPa 0.0 l/m 3.6 km/h (1 Bft) O-SO 0.8 C 4.8 C
17.11.2004 20:00 5.5 C 72 % 1028.7 hPa 0.0 l/m 0.5 km/h (0 Bft) O-SO 0.9 C 5.5 C
17.11.2004 21:00 5.7 C 72 % 1028.7 hPa 0.0 l/m 1.7 km/h (1 Bft) O-SO 1.0 C 5.5 C
17.11.2004 22:00 5.9 C 70 % 1028.2 hPa 0.0 l/m 2.0 km/h (1 Bft) SO 1.0 C 5.7 C
17.11.2004 23:00 6.1 C 70 % 1027.6 hPa 0.0 l/m 1.4 km/h (1 Bft) S 1.1 C 6.1 C
18.11.2004 00:00 6.3 C 70 % 1027.5 hPa 0.0 l/m 2.7 km/h (1 Bft) SO 1.3 C 6.0 C
18.11.2004 01:00 6.3 C 72 % 1026.8 hPa 0.0 l/m 3.2 km/h (1 Bft) W 1.6 C 5.8 C
18.11.2004 02:00 6.4 C 72 % 1026.5 hPa 0.0 l/m 3.8 km/h (1 Bft) O-SO 1.8 C 5.9 C
18.11.2004 03:00 6.5 C 71 % 1025.7 hPa 0.0 l/m 4.5 km/h (1 Bft) S 1.6 C 5.9 C
18.11.2004 04:00 6.5 C 71 % 1025.4 hPa 0.0 l/m 12.1 km/h (2 Bft) SO 1.7 C 4.2 C
18.11.2004 05:00 6.7 C 70 % 1025.4 hPa 0.0 l/m 9.1 km/h (2 Bft) O-SO 1.6 C 5.2 C
18.11.2004 06:00 6.7 C 70 % 1024.8 hPa 0.0 l/m 9.8 km/h (2 Bft) SO 1.5 C 4.9 C
18.11.2004 07:00 6.7 C 69 % 1024.4 hPa 0.0 l/m 7.4 km/h (2 Bft) SO 1.4 C 5.4 C
18.11.2004 08:00 6.9 C 69 % 1024.8 hPa 0.0 l/m 1.4 km/h (1 Bft) O-SO 1.6 C 6.8 C
18.11.2004 09:00 8.4 C 61 % 1024.4 hPa 0.0 l/m 13.5 km/h (3 Bft) W-NW 1.2 C 6.4 C
18.11.2004 10:00 8.9 C 57 % 1024.0 hPa 0.0 l/m 20.0 km/h (4 Bft) W-NW 0.9 C 6.1 C
18.11.2004 11:00 9.2 C 57 % 1023.5 hPa 0.0 l/m 22.1 km/h (4 Bft) W-NW 1.1 C 6.4 C
18.11.2004 12:00 9.1 C 59 % 1022.3 hPa 0.0 l/m 20.1 km/h (4 Bft) W-NW 1.5 C 6.4 C
18.11.2004 13:00 9.0 C 60 % 1021.4 hPa 0.0 l/m 18.5 km/h (3 Bft) W-NW 1.7 C 6.5 C
18.11.2004 14:00 9.1 C 60 % 1020.1 hPa 0.0 l/m 15.4 km/h (3 Bft) W-NW 1.8 C 6.9 C
18.11.2004 15:00 9.1 C 58 % 1019.4 hPa 0.0 l/m 20.2 km/h (4 Bft) W-NW 1.3 C 6.3 C
18.11.2004 16:00 8.6 C 60 % 1018.9 hPa 0.0 l/m 24.5 km/h (4 Bft) W-NW 1.3 C 5.3 C
18.11.2004 17:00 8.2 C 63 % 1018.9 hPa 0.0 l/m 17.9 km/h (3 Bft) W-NW 1.5 C 5.5 C
18.11.2004 18:00 8.2 C 62 % 1018.4 hPa 0.0 l/m 27.6 km/h (4 Bft) W-NW 1.4 C 4.6 C
18.11.2004 19:00 8.1 C 60 % 1017.6 hPa 0.0 l/m 22.9 km/h (4 Bft) W-NW 0.8 C 4.8 C
18.11.2004 20:00 7.9 C 61 % 1016.7 hPa 0.0 l/m 19.3 km/h (3 Bft) W-NW 0.9 C 4.9 C
18.11.2004 21:00 7.8 C 61 % 1015.9 hPa 0.0 l/m 31.8 km/h (5 Bft) W-NW 0.7 C 3.7 C
18.11.2004 22:00 7.5 C 65 % 1015.5 hPa 0.0 l/m 29.4 km/h (5 Bft) W-NW 1.3 C 3.4 C
18.11.2004 23:00 7.6 C 63 % 1014.2 hPa 0.0 l/m 12.0 km/h (2 Bft) W 1.0 C 5.6 C
19.11.2004 00:00 7.4 C 65 % 1012.7 hPa 0.0 l/m 21.2 km/h (4 Bft) SW 1.1 C 4.0 C
19.11.2004 01:00 7.2 C 69 % 1011.8 hPa 0.3 l/m 20.2 km/h (4 Bft) W-SW 1.8 C 4.0 C
19.11.2004 02:00 6.6 C 79 % 1010.4 hPa 0.0 l/m 17.8 km/h (3 Bft) W 3.3 C 3.7 C
19.11.2004 03:00 6.8 C 79 % 1009.5 hPa 0.6 l/m 15.4 km/h (3 Bft) W 3.3 C 4.1 C
19.11.2004 04:00 6.0 C 90 % 1008.1 hPa 1.9 l/m 19.6 km/h (3 Bft) W 4.5 C 2.6 C
19.11.2004 05:00 6.0 C 92 % 1007.8 hPa 0.3 l/m 20.8 km/h (4 Bft) W 4.9 C 2.4 C
19.11.2004 06:00 6.3 C 88 % 1007.0 hPa 0.9 l/m 22.1 km/h (4 Bft) W-SW 4.5 C 2.6 C
19.11.2004 07:00 6.3 C 91 % 1006.8 hPa 2.2 l/m 19.9 km/h (4 Bft) W 4.9 C 2.9 C
19.11.2004 08:00 6.1 C 86 % 1009.3 hPa 0.3 l/m 36.1 km/h (5 Bft) NW 3.9 C 1.2 C
19.11.2004 09:00 4.5 C 65 % 1013.1 hPa 0.0 l/m 29.1 km/h (5 Bft) NW -1.5 C -0.2 C
19.11.2004 10:00 4.4 C 56 % 1015.8 hPa 0.0 l/m 22.1 km/h (4 Bft) NW -3.6 C 0.4 C
19.11.2004 11:00 4.8 C 51 % 1017.3 hPa 0.0 l/m 10.4 km/h (2 Bft) NW -4.5 C 2.9 C
19.11.2004 12:00 5.7 C 46 % 1017.2 hPa 0.0 l/m 19.2 km/h (3 Bft) W-NW -5.0 C 2.3 C
19.11.2004 13:00 5.9 C 45 % 1017.9 hPa 0.0 l/m 28.9 km/h (5 Bft) W-NW -5.2 C 1.4 C
19.11.2004 14:00 5.0 C 42 % 1018.5 hPa 0.0 l/m 28.0 km/h (4 Bft) NW -6.8 C 0.3 C
19.11.2004 15:00 4.2 C 44 % 1019.6 hPa 0.0 l/m 26.4 km/h (4 Bft) W-NW -7.1 C -0.6 C
19.11.2004 16:00 3.1 C 48 % 1020.7 hPa 0.0 l/m 23.0 km/h (4 Bft) W-NW -6.8 C -1.5 C
19.11.2004 17:00 2.6 C 57 % 1021.8 hPa 0.0 l/m 13.3 km/h (3 Bft) NW -5.1 C -0.4 C
19.11.2004 18:00 0.7 C 83 % 1023.9 hPa 0.3 l/m 4.5 km/h (1 Bft) NW -1.8 C -0.5 C
19.11.2004 19:00 -0.1 C 88 % 1024.3 hPa 0.0 l/m 5.1 km/h (1 Bft) O-SO -1.9 C -1.8 C
19.11.2004 20:00 -1.2 C 92 % 1025.3 hPa 0.0 l/m 5.2 km/h (1 Bft) O-SO -2.3 C -2.8 C
19.11.2004 21:00 -1.4 C 93 % 1025.5 hPa 0.0 l/m 5.1 km/h (1 Bft) O-SO -2.4 C -2.8 C
19.11.2004 22:00 -1.5 C 94 % 1025.6 hPa 0.0 l/m 5.0 km/h (1 Bft) SO -2.4 C -3.3 C
19.11.2004 23:00 -1.9 C 94 % 1026.5 hPa 0.0 l/m 0.2 km/h (0 Bft) N -2.7 C -1.9 C
20.11.2004 00:00 -2.0 C 95 % 1026.2 hPa 0.0 l/m 3.3 km/h (1 Bft) O-SO -2.8 C -3.1 C
20.11.2004 01:00 -1.7 C 95 % 1026.5 hPa 0.0 l/m 2.1 km/h (1 Bft) SO -2.4 C -2.2 C
20.11.2004 02:00 -1.7 C 95 % 1026.6 hPa 0.0 l/m 3.9 km/h (1 Bft) O-SO -2.3 C -2.7 C
20.11.2004 03:00 -1.5 C 96 % 1026.6 hPa 0.0 l/m 1.5 km/h (1 Bft) O-SO -2.1 C -2.0 C
20.11.2004 04:00 -1.4 C 96 % 1026.0 hPa 0.0 l/m 1.5 km/h (1 Bft) O-SO -2.0 C -1.8 C
20.11.2004 05:00 -1.7 C 95 % 1025.6 hPa 0.0 l/m 1.3 km/h (1 Bft) SO -2.4 C -2.0 C
20.11.2004 06:00 -1.5 C 95 % 1026.3 hPa 0.0 l/m 2.9 km/h (1 Bft) O-SO -2.2 C -2.1 C
20.11.2004 07:00 -1.5 C 95 % 1026.6 hPa 0.0 l/m 2.7 km/h (1 Bft) O-SO -2.2 C -2.5 C
20.11.2004 08:00 -0.8 C 95 % 1026.4 hPa 0.0 l/m 0.8 km/h (0 Bft) O-SO -1.5 C -0.9 C
20.11.2004 09:00 0.5 C 87 % 1026.3 hPa 0.0 l/m 2.8 km/h (1 Bft) O-SO -1.5 C -0.2 C
20.11.2004 10:00 0.6 C 84 % 1026.3 hPa 0.0 l/m 8.0 km/h (2 Bft) W-NW -1.8 C -1.8 C
20.11.2004 11:00 0.7 C 87 % 1026.2 hPa 0.3 l/m 4.9 km/h (1 Bft) W-NW -1.2 C -0.6 C
20.11.2004 12:00 0.5 C 91 % 1025.3 hPa 0.3 l/m 0.1 km/h (0 Bft) N -0.8 C 0.5 C
20.11.2004 13:00 0.2 C 93 % 1025.3 hPa 0.9 l/m 3.0 km/h (1 Bft) W-NW -0.8 C -0.5 C
20.11.2004 14:00 0.9 C 91 % 1025.2 hPa 0.0 l/m 19.8 km/h (4 Bft) W-NW -0.4 C -4.0 C
20.11.2004 15:00 1.1 C 89 % 1025.2 hPa 0.0 l/m 27.7 km/h (4 Bft) W-NW -0.5 C -4.7 C
20.11.2004 16:00 0.8 C 87 % 1025.6 hPa 0.0 l/m 31.4 km/h (5 Bft) W-NW -1.1 C -5.6 C
20.11.2004 17:00 0.4 C 88 % 1026.5 hPa 0.0 l/m 25.2 km/h (4 Bft) W-NW -1.4 C -5.4 C
20.11.2004 18:00 -0.1 C 88 % 1027.4 hPa 0.0 l/m 11.5 km/h (2 Bft) W-NW -1.8 C -3.3 C
20.11.2004 19:00 -0.8 C 90 % 1027.5 hPa 0.0 l/m 3.6 km/h (1 Bft) W -2.2 C -1.7 C
20.11.2004 20:00 -1.0 C 92 % 1027.6 hPa 0.0 l/m 8.5 km/h (2 Bft) W-NW -2.1 C -3.8 C
20.11.2004 21:00 -0.7 C 92 % 1027.5 hPa 0.0 l/m 12.1 km/h (2 Bft) W-NW -1.8 C -4.4 C
20.11.2004 22:00 -1.1 C 92 % 1027.6 hPa 0.0 l/m 4.2 km/h (1 Bft) W -2.2 C -2.2 C
20.11.2004 23:00 -0.4 C 93 % 1028.5 hPa 0.0 l/m 8.9 km/h (2 Bft) W-NW -1.4 C -3.2 C
21.11.2004 00:00 -1.8 C 91 % 1028.7 hPa 0.0 l/m 1.3 km/h (1 Bft) W-NW -3.1 C -2.1 C
21.11.2004 01:00 -2.6 C 92 % 1028.9 hPa 0.0 l/m 0.6 km/h (0 Bft) SW -3.7 C -2.6 C
21.11.2004 02:00 -3.4 C 93 % 1029.0 hPa 0.0 l/m 0.2 km/h (0 Bft) SW -4.4 C -3.4 C
21.11.2004 03:00 -4.5 C 93 % 1029.1 hPa 0.0 l/m 0.0 km/h (0 Bft) N -5.5 C -4.5 C
21.11.2004 04:00 -4.6 C 93 % 1030.1 hPa 0.0 l/m 0.1 km/h (0 Bft) N -5.5 C -4.6 C
21.11.2004 05:00 -4.3 C 94 % 1030.2 hPa 0.0 l/m 0.3 km/h (0 Bft) W-SW -5.1 C -4.3 C
21.11.2004 06:00 -3.9 C 95 % 1030.1 hPa 0.0 l/m 0.6 km/h (0 Bft) W-NW -4.6 C -4.0 C
21.11.2004 07:00 -3.6 C 95 % 1030.8 hPa 0.0 l/m 0.2 km/h (0 Bft) N -4.2 C -3.6 C
21.11.2004 08:00 -2.9 C 95 % 1031.0 hPa 0.0 l/m 0.5 km/h (0 Bft) W -3.6 C -3.0 C
21.11.2004 09:00 -2.1 C 84 % 1030.9 hPa 0.0 l/m 0.9 km/h (0 Bft) W-NW -4.5 C -2.3 C
21.11.2004 10:00 -0.9 C 81 % 1030.7 hPa 0.0 l/m 0.9 km/h (0 Bft) O -3.7 C -1.1 C
21.11.2004 11:00 -0.2 C 80 % 1030.6 hPa 0.0 l/m 1.9 km/h (1 Bft) W -3.3 C -0.7 C
21.11.2004 12:00 1.0 C 80 % 1030.0 hPa 0.0 l/m 0.5 km/h (0 Bft) O -2.2 C 0.9 C
21.11.2004 13:00 1.7 C 79 % 1029.3 hPa 0.0 l/m 1.3 km/h (1 Bft) O -1.5 C 1.6 C
21.11.2004 14:00 2.2 C 76 % 1029.2 hPa 0.0 l/m 1.7 km/h (1 Bft) W-NW -1.5 C 1.8 C
21.11.2004 15:00 1.7 C 77 % 1029.2 hPa 0.0 l/m 1.6 km/h (1 Bft) S -1.8 C 1.4 C
21.11.2004 16:00 0.2 C 84 % 1029.1 hPa 0.0 l/m 0.0 km/h (0 Bft) N -2.2 C 0.2 C
21.11.2004 17:00 0.1 C 90 % 1029.2 hPa 0.0 l/m 0.0 km/h (0 Bft) N -1.4 C 0.1 C
21.11.2004 18:00 0.4 C 90 % 1028.4 hPa 0.0 l/m 0.0 km/h (0 Bft) N -1.0 C 0.4 C
21.11.2004 19:00 0.6 C 89 % 1028.4 hPa 0.0 l/m 0.0 km/h (0 Bft) N -1.0 C 0.6 C
21.11.2004 20:00 0.9 C 88 % 1028.3 hPa 0.0 l/m 0.0 km/h (0 Bft) N -0.9 C 0.9 C
21.11.2004 21:00 1.0 C 88 % 1028.3 hPa 0.0 l/m 0.0 km/h (0 Bft) N -0.8 C 1.0 C
21.11.2004 22:00 1.1 C 88 % 1028.3 hPa 0.0 l/m 0.0 km/h (0 Bft) N -0.6 C 1.1 C
21.11.2004 23:00 1.1 C 91 % 1028.3 hPa 0.0 l/m 0.0 km/h (0 Bft) N -0.2 C 1.1 C
Min-Datum _ 16.11.04 19.11.04 19.11.04 - 15.11.04 - 16.11.04 16.11.04
_ Min-Zeit 05:29 14:05 07:56 - 00:02 - 05:29 01:26
Minimum _ -6.1 C 40 % 1006.6 hPa - 0.0 km/h (0 Bft) - -7.8 C -8.3 C
Max-Datum _ 18.11.04 20.11.04 16.11.04 19.11.04 19.11.04 - 19.11.04 18.11.04
_ Max-Zeit 11:17 02:41 09:35 07:56 08:05 - 07:59 13:50
Maximum _ 9.2 C 96 % 1033.1 hPa 2.2 l/m 61.0 km/h
NW (7 Bft)
- 6.0 C 9.0 C
Durchschnitt _ 1.6 C 79 % 1026.5 hPa #8.4 l/m 7.0 km/h (2 Bft) W-NW -2.0 C 0.3 C

Durchschnitt Minimum Temp.1.1 C
Durchschnitt Maximum Temp.2.1 C
© Kaiko 2004